Time;durP1;ratioP1;P1;durP2;ratioP2;P2;SDS_P1;SDS_P2;PMS_P1;PMS_P2;Temp;Humidity;BMP_temperature;BMP_pressure;BME280_temperature;BME280_humidity;BME280_pressure;Samples;Min_cycle;Max_cycle;Signal;HPM_P1;HPM_P2
2024/01/17 00:00:51;;;;;;;30.37;13.43;;;;;;;-145.18;100.00;46838.16;5029551;28;20034;-78
2024/01/17 00:03:16;;;;;;;25.15;12.45;;;;;;;-145.18;100.00;46836.19;5014744;28;20053;-78
2024/01/17 00:05:42;;;;;;;29.47;12.90;;;;;;;-145.18;100.00;46842.06;5029792;28;20502;-78
2024/01/17 00:08:09;;;;;;;26.80;13.67;;;;;;;-145.18;100.00;46840.09;5013261;28;20026;-78
2024/01/17 00:10:34;;;;;;;23.42;12.90;;;;;;;-145.18;100.00;46838.16;5014956;28;20572;-78
2024/01/17 00:13:00;;;;;;;31.03;14.47;;;;;;;-145.18;100.00;46836.19;5014709;28;20077;-78
2024/01/17 00:15:25;;;;;;;35.33;13.70;;;;;;;-145.18;100.00;46838.16;5029392;28;20109;-78
2024/01/17 00:17:50;;;;;;;31.27;13.13;;;;;;;-145.18;100.00;46834.25;5029937;28;20030;-78
2024/01/17 00:20:16;;;;;;;26.53;13.00;;;;;;;-145.18;100.00;46836.19;5013114;28;20394;-78
2024/01/17 00:22:42;;;;;;;24.00;11.63;;;;;;;-145.18;100.00;46838.16;5029730;28;20037;-78
2024/01/17 00:25:08;;;;;;;28.73;12.10;;;;;;;-145.18;100.00;46840.09;5012912;28;20139;-78
2024/01/17 00:27:35;;;;;;;26.90;11.95;;;;;;;-145.18;100.00;46832.28;5014724;28;20038;-78
2024/01/17 00:30:01;;;;;;;28.30;12.85;;;;;;;-145.18;100.00;46840.09;5014725;28;20029;-78
2024/01/17 00:32:26;;;;;;;33.93;13.67;;;;;;;-145.18;100.00;46842.06;5013437;28;20045;-78
2024/01/17 00:34:52;;;;;;;30.00;13.47;;;;;;;-145.18;100.00;46840.09;5014027;28;20068;-79
2024/01/17 00:37:17;;;;;;;27.37;12.80;;;;;;;-145.18;100.00;46838.16;5013315;28;20041;-79
2024/01/17 00:39:43;;;;;;;26.47;12.23;;;;;;;-145.18;100.00;46838.16;5014467;28;20034;-82
2024/01/17 00:42:08;;;;;;;21.20;12.80;;;;;;;-145.18;100.00;46838.16;5013999;28;20386;-83
2024/01/17 00:44:38;;;;;;;29.53;12.70;;;;;;;-145.18;100.00;46844.00;5014019;28;20147;-84
2024/01/17 00:47:06;;;;;;;23.08;12.90;;;;;;;-145.18;100.00;46836.19;5014253;28;20116;-80
2024/01/17 00:49:32;;;;;;;29.58;12.95;;;;;;;-145.18;100.00;46840.09;5028900;28;20042;-85
2024/01/17 00:51:57;;;;;;;24.67;12.53;;;;;;;-145.18;100.00;46845.97;5029789;28;20038;-84
2024/01/17 00:54:23;;;;;;;24.67;12.17;;;;;;;-145.18;100.00;46842.06;5013045;28;20022;-84
2024/01/17 00:56:48;;;;;;;25.73;12.57;;;;;;;-145.18;100.00;46838.16;5028987;28;20125;-85
2024/01/17 00:59:14;;;;;;;26.87;12.80;;;;;;;-145.18;100.00;46842.06;5012736;28;20054;-84
2024/01/17 01:01:39;;;;;;;26.00;12.47;;;;;;;-145.18;100.00;46844.00;5014307;28;20104;-84
2024/01/17 01:04:04;;;;;;;25.13;12.53;;;;;;;-145.18;100.00;46842.06;5013852;28;20046;-84
2024/01/17 01:06:30;;;;;;;24.27;12.43;;;;;;;-145.18;100.00;46838.16;5029409;28;20037;-83
2024/01/17 01:08:55;;;;;;;24.93;11.67;;;;;;;-145.18;100.00;46845.97;5028674;28;20037;-84
2024/01/17 01:11:20;;;;;;;24.30;12.13;;;;;;;-145.18;100.00;46840.09;5013427;28;20042;-84
2024/01/17 01:13:46;;;;;;;26.73;13.00;;;;;;;-145.18;100.00;46842.06;5032436;28;20124;-84
2024/01/17 01:16:11;;;;;;;31.87;13.10;;;;;;;-145.18;100.00;46844.00;5017218;28;20038;-84
2024/01/17 01:18:37;;;;;;;30.27;12.80;;;;;;;-145.18;100.00;46842.06;5017532;28;20065;-84
2024/01/17 01:21:02;;;;;;;22.70;12.23;;;;;;;-145.18;100.00;46842.06;5017403;28;20128;-85
2024/01/17 01:23:28;;;;;;;24.47;12.30;;;;;;;-145.18;100.00;46840.09;5032736;28;20167;-84
2024/01/17 01:25:53;;;;;;;25.23;12.37;;;;;;;-145.18;100.00;46838.16;5018030;28;20072;-84
2024/01/17 01:28:19;;;;;;;21.93;12.30;;;;;;;-145.18;100.00;46838.16;5017594;28;20038;-83
2024/01/17 01:30:45;;;;;;;18.30;11.88;;;;;;;-145.18;100.00;46840.09;5032323;28;20046;-83
2024/01/17 01:33:10;;;;;;;23.77;11.90;;;;;;;-145.18;100.00;46836.19;5016096;28;20034;-83
2024/01/17 01:35:36;;;;;;;28.83;12.33;;;;;;;-145.18;100.00;46838.16;5017197;28;20355;-83
2024/01/17 01:38:01;;;;;;;23.23;14.27;;;;;;;-145.18;100.00;46842.06;5017006;28;20475;-84
2024/01/17 01:40:27;;;;;;;21.57;11.83;;;;;;;-145.18;100.00;46838.16;5032824;28;20042;-83
2024/01/17 01:42:53;;;;;;;26.17;12.03;;;;;;;-145.18;100.00;46832.28;5032427;28;20030;-84
2024/01/17 01:45:19;;;;;;;25.40;11.52;;;;;;;-145.18;100.00;46840.09;5032092;28;20044;-83
2024/01/17 01:47:45;;;;;;;25.17;12.32;;;;;;;-145.18;100.00;46838.16;5017221;28;20042;-83
2024/01/17 01:50:11;;;;;;;23.17;12.47;;;;;;;-145.18;100.00;46840.09;5018494;28;20471;-84
2024/01/17 01:52:40;;;;;;;27.13;11.68;;;;;;;-145.18;100.00;46840.09;5017263;28;20057;-84
2024/01/17 01:55:07;;;;;;;26.33;12.98;;;;;;;-145.18;100.00;46836.19;5017794;28;20038;-83
2024/01/17 01:57:36;;;;;;;24.80;13.00;;;;;;;-145.18;100.00;46840.09;5016899;28;20037;-83
2024/01/17 02:00:04;;;;;;;21.20;11.88;;;;;;;-145.18;100.00;46836.19;5018414;28;20109;-83
2024/01/17 02:02:31;;;;;;;20.85;12.73;;;;;;;-145.18;100.00;46842.06;5018157;28;20060;-83
2024/01/17 02:04:57;;;;;;;25.10;12.30;;;;;;;-145.18;100.00;46836.19;5034079;28;20049;-83
2024/01/17 02:07:25;;;;;;;23.58;12.75;;;;;;;-145.18;100.00;46834.25;5017781;28;20053;-83
2024/01/17 02:09:50;;;;;;;24.27;12.65;;;;;;;-145.18;100.00;46836.19;5033694;28;20033;-82
2024/01/17 02:12:16;;;;;;;29.33;13.53;;;;;;;-145.18;100.00;46836.19;5017279;28;20343;-82
2024/01/17 02:14:44;;;;;;;24.57;12.60;;;;;;;-145.18;100.00;46842.06;5017650;28;20026;-83
2024/01/17 02:17:10;;;;;;;28.25;13.02;;;;;;;-145.18;100.00;46836.19;5016806;28;20065;-84
2024/01/17 02:19:36;;;;;;;27.33;12.13;;;;;;;-145.18;100.00;46836.19;5017340;28;20042;-83
2024/01/17 02:22:01;;;;;;;22.08;12.93;;;;;;;-145.18;100.00;46840.09;5033480;28;20382;-81
2024/01/17 02:24:28;;;;;;;20.73;12.03;;;;;;;-145.18;100.00;46844.00;5033217;28;20042;-83
2024/01/17 02:26:54;;;;;;;25.02;12.10;;;;;;;-145.18;100.00;46842.06;5018185;28;20040;-83
2024/01/17 02:29:20;;;;;;;28.88;12.25;;;;;;;-145.18;100.00;46840.09;5016751;28;20097;-83
2024/01/17 02:31:46;;;;;;;35.00;14.10;;;;;;;-145.18;100.00;46842.06;5017844;28;20054;-83
2024/01/17 02:34:12;;;;;;;22.37;11.60;;;;;;;-145.18;100.00;46840.09;5017808;28;20022;-83
2024/01/17 02:36:37;;;;;;;29.60;12.90;;;;;;;-145.18;100.00;46840.09;5017629;28;20041;-83
2024/01/17 02:39:03;;;;;;;25.80;11.97;;;;;;;-145.18;100.00;46844.00;5033507;28;20038;-83
2024/01/17 02:41:28;;;;;;;22.40;12.10;;;;;;;-145.18;100.00;46840.09;5016568;28;20041;-83
2024/01/17 02:43:53;;;;;;;21.90;12.00;;;;;;;-145.18;100.00;46844.00;5032606;28;20045;-83
2024/01/17 02:46:21;;;;;;;21.37;11.90;;;;;;;-145.18;100.00;46844.00;5032488;28;20037;-83
2024/01/17 02:48:47;;;;;;;23.27;11.65;;;;;;;-145.18;100.00;46838.16;5015878;28;20121;-83
2024/01/17 02:51:12;;;;;;;25.73;12.17;;;;;;;-145.18;100.00;46836.19;5016534;28;20064;-83
2024/01/17 02:53:37;;;;;;;21.33;11.77;;;;;;;-145.18;100.00;46836.19;5017294;28;20056;-83
2024/01/17 02:56:03;;;;;;;23.43;12.90;;;;;;;-145.18;100.00;46836.19;5032390;28;20482;-83
2024/01/17 02:58:29;;;;;;;24.25;12.55;;;;;;;-145.18;100.00;46842.06;5032553;28;20056;-83
2024/01/17 03:00:54;;;;;;;24.07;12.73;;;;;;;-145.18;100.00;46838.16;5032054;28;20046;-82
2024/01/17 03:03:19;;;;;;;20.73;11.13;;;;;;;-145.18;100.00;46838.16;5016824;28;20080;-82
2024/01/17 03:05:45;;;;;;;24.60;11.87;;;;;;;-145.18;100.00;46836.19;5031681;28;20041;-82
2024/01/17 03:08:10;;;;;;;20.67;11.90;;;;;;;-145.18;100.00;46840.09;5017170;28;20109;-89
2024/01/17 03:10:35;;;;;;;25.00;12.20;;;;;;;-145.18;100.00;46838.16;5017277;28;20107;-90
2024/01/17 03:13:01;;;;;;;23.33;13.07;;;;;;;-145.18;100.00;46844.00;5018886;28;20066;-90
2024/01/17 03:15:26;;;;;;;24.53;12.07;;;;;;;-145.18;100.00;46844.00;5017476;28;20030;-88
2024/01/17 03:17:52;;;;;;;22.17;12.07;;;;;;;-145.18;100.00;46844.00;5017689;28;20041;-84
2024/01/17 03:20:17;;;;;;;27.67;13.57;;;;;;;-145.18;100.00;46847.91;5016585;28;20398;-83
2024/01/17 03:22:42;;;;;;;24.10;12.43;;;;;;;-145.18;100.00;46844.00;5031933;28;20068;-83
2024/01/17 03:25:08;;;;;;;25.67;12.83;;;;;;;-145.18;100.00;46840.09;5016957;28;20391;-83
2024/01/17 03:27:35;;;;;;;32.37;12.90;;;;;;;-145.18;100.00;46844.00;5017352;28;20380;-90
2024/01/17 03:30:01;;;;;;;21.20;12.30;;;;;;;-145.18;100.00;46840.09;5034770;28;20053;-90
2024/01/17 03:32:26;;;;;;;20.63;11.73;;;;;;;-145.18;100.00;46842.06;5033570;28;20459;-90
2024/01/17 03:34:55;;;;;;;26.00;12.30;;;;;;;-145.18;100.00;46842.06;5016567;28;20034;-90
2024/01/17 03:37:21;;;;;;;22.08;11.23;;;;;;;-145.18;100.00;46842.06;5033427;28;20467;-89
2024/01/17 03:39:46;;;;;;;26.27;12.10;;;;;;;-145.18;100.00;46842.06;5001451;28;20044;-89
2024/01/17 03:42:16;;;;;;;21.17;11.70;;;;;;;-145.18;100.00;46844.00;5017793;28;20117;-90
2024/01/17 03:44:43;;;;;;;30.40;12.07;;;;;;;-145.18;100.00;46844.00;5018320;28;20068;-90
2024/01/17 03:47:09;;;;;;;19.52;11.20;;;;;;;-145.18;100.00;46844.00;5017712;28;20073;-91
2024/01/17 03:49:34;;;;;;;23.10;11.03;;;;;;;-145.18;100.00;46842.06;5001058;28;20137;-89
2024/01/17 03:52:00;;;;;;;25.53;11.70;;;;;;;-145.18;100.00;46840.09;5033510;28;20229;-89
2024/01/17 03:54:25;;;;;;;27.63;11.37;;;;;;;-145.18;100.00;46836.19;5000933;28;20036;-89
2024/01/17 03:56:50;;;;;;;25.87;11.60;;;;;;;-145.18;100.00;46842.06;5033521;28;20046;-88
2024/01/17 03:59:16;;;;;;;25.93;11.70;;;;;;;-145.18;100.00;46834.25;5016584;28;20061;-89
2024/01/17 04:01:43;;;;;;;21.27;10.47;;;;;;;-145.18;100.00;46836.19;5017530;28;20037;-90
2024/01/17 04:04:09;;;;;;;20.83;10.82;;;;;;;-145.18;100.00;46836.19;5017410;28;20041;-90
2024/01/17 04:06:34;;;;;;;22.70;10.63;;;;;;;-145.18;100.00;46832.28;5032943;28;20042;-89
2024/01/17 04:08:59;;;;;;;24.03;11.07;;;;;;;-145.18;100.00;46832.28;5016861;28;20018;-90
2024/01/17 04:11:25;;;;;;;21.33;9.70;;;;;;;-145.18;100.00;46832.28;5032852;28;20034;-90
2024/01/17 04:13:51;;;;;;;21.87;9.30;;;;;;;-145.18;100.00;46832.28;5016270;28;20467;-88
2024/01/17 04:16:17;;;;;;;20.08;9.73;;;;;;;-145.18;100.00;46828.38;5016340;28;20509;-89
2024/01/17 04:18:42;;;;;;;21.37;10.27;;;;;;;-145.18;100.00;46830.34;5016473;28;20061;-89
2024/01/17 04:21:07;;;;;;;23.97;10.50;;;;;;;-145.18;100.00;46828.38;5016593;28;20037;-89
2024/01/17 04:23:33;;;;;;;25.97;10.07;;;;;;;-145.18;100.00;46834.25;5016032;28;20062;-89
2024/01/17 04:25:58;;;;;;;22.93;10.23;;;;;;;-145.18;100.00;46828.38;4999049;28;20034;-88
2024/01/17 04:28:23;;;;;;;21.67;9.97;;;;;;;-145.18;100.00;46832.28;5032258;28;20148;-89
2024/01/17 04:30:49;;;;;;;18.93;9.53;;;;;;;-145.18;100.00;46826.44;5015908;28;20045;-90
2024/01/17 04:33:15;;;;;;;24.37;9.77;;;;;;;-145.18;100.00;46830.34;5014969;28;20107;-89
2024/01/17 04:35:40;;;;;;;22.13;10.30;;;;;;;-145.18;100.00;46828.38;5032805;28;20084;-91
2024/01/17 04:38:07;;;;;;;19.67;9.32;;;;;;;-145.18;100.00;46834.25;5032077;28;20512;-89
2024/01/17 04:40:32;;;;;;;23.23;10.27;;;;;;;-145.18;100.00;46828.38;4999028;28;20034;-90
2024/01/17 04:42:57;;;;;;;18.93;10.10;;;;;;;-145.18;100.00;46832.28;5032370;28;20037;-89
2024/01/17 04:45:23;;;;;;;18.70;8.23;;;;;;;-145.18;100.00;46830.34;5016680;28;20117;-89
2024/01/17 04:47:48;;;;;;;15.63;7.83;;;;;;;-145.18;100.00;46832.28;5014159;28;20087;-89
2024/01/17 04:50:14;;;;;;;18.17;8.73;;;;;;;-145.18;100.00;46826.44;5013431;28;20121;-89
2024/01/17 04:52:40;;;;;;;25.03;8.40;;;;;;;-145.18;100.00;46828.38;5029915;28;20452;-89
2024/01/17 04:55:07;;;;;;;22.47;9.03;;;;;;;-145.18;100.00;46824.47;5029533;28;20025;-89
2024/01/17 04:57:33;;;;;;;21.88;8.95;;;;;;;-145.18;100.00;46832.28;4997477;28;20070;-89
2024/01/17 04:59:58;;;;;;;21.40;8.80;;;;;;;-145.18;100.00;46830.34;5012702;28;20487;-89
2024/01/17 05:02:23;;;;;;;21.93;9.10;;;;;;;-145.18;100.00;46828.38;5013633;28;20149;-89
2024/01/17 05:04:49;;;;;;;23.40;8.07;;;;;;;-145.18;100.00;46832.28;5013857;28;20045;-89
2024/01/17 05:07:15;;;;;;;21.13;9.10;;;;;;;-145.18;100.00;46828.38;4996246;28;20475;-89
2024/01/17 05:09:40;;;;;;;18.40;8.57;;;;;;;-145.18;100.00;46830.34;5012994;28;20272;-90
2024/01/17 05:12:06;;;;;;;16.70;7.70;;;;;;;-145.18;100.00;46830.34;5013688;28;20463;-88
2024/01/17 05:14:31;;;;;;;17.07;8.33;;;;;;;-145.18;100.00;46826.44;5013469;28;20451;-89
2024/01/17 05:16:57;;;;;;;19.87;8.30;;;;;;;-145.18;100.00;46828.38;5029104;28;20112;-88
2024/01/17 05:19:23;;;;;;;17.00;8.80;;;;;;;-145.18;100.00;46832.28;5029618;28;20034;-89
2024/01/17 05:21:48;;;;;;;19.57;8.30;;;;;;;-145.18;100.00;46822.53;5013032;28;20029;-89
2024/01/17 05:24:13;;;;;;;14.17;7.60;;;;;;;-145.18;100.00;46816.66;5029429;28;20040;-90
2024/01/17 05:26:39;;;;;;;15.37;8.47;;;;;;;-145.18;100.00;46820.56;5012712;28;20487;-89
2024/01/17 05:29:04;;;;;;;15.07;7.77;;;;;;;-145.18;100.00;46820.56;5013859;28;20056;-90
2024/01/17 05:31:29;;;;;;;19.33;8.57;;;;;;;-145.18;100.00;46818.63;5012729;28;20061;-89
2024/01/17 05:33:55;;;;;;;15.07;8.40;;;;;;;-145.18;100.00;46820.56;5029414;28;20038;-89
2024/01/17 05:36:20;;;;;;;15.97;7.60;;;;;;;-145.18;100.00;46816.66;4996108;28;20030;-88
2024/01/17 05:38:47;;;;;;;21.97;7.73;;;;;;;-145.18;100.00;46820.56;5014497;28;20037;-89
2024/01/17 05:41:13;;;;;;;13.90;7.57;;;;;;;-145.18;100.00;46822.53;5013715;28;20048;-89
2024/01/17 05:43:38;;;;;;;16.93;7.40;;;;;;;-145.18;100.00;46824.47;5014232;28;20033;-89
2024/01/17 05:46:03;;;;;;;15.87;7.60;;;;;;;-145.18;100.00;46818.63;5028455;28;20096;-89
2024/01/17 05:48:29;;;;;;;14.97;7.13;;;;;;;-145.18;100.00;46820.56;5012252;28;20065;-87
2024/01/17 05:50:54;;;;;;;17.57;7.63;;;;;;;-145.18;100.00;46818.63;5012922;28;20069;-87
2024/01/17 05:53:20;;;;;;;16.53;7.83;;;;;;;-145.18;100.00;46816.66;5013666;28;20029;-87
2024/01/17 05:55:45;;;;;;;16.10;7.77;;;;;;;-145.18;100.00;46820.56;5028501;28;20046;-86
2024/01/17 05:58:10;;;;;;;15.27;6.87;;;;;;;-145.18;100.00;46814.72;5031730;28;20092;-87
2024/01/17 06:00:37;;;;;;;16.93;7.30;;;;;;;-145.18;100.00;46818.63;5032586;28;20463;-87
2024/01/17 06:03:03;;;;;;;14.55;6.60;;;;;;;-145.18;100.00;46814.72;5016559;28;20054;-85
2024/01/17 06:05:28;;;;;;;16.57;7.33;;;;;;;-145.18;100.00;46812.75;4999580;28;20046;-86
2024/01/17 06:07:55;;;;;;;14.70;7.93;;;;;;;-145.18;100.00;46810.81;5015511;28;20040;-87
2024/01/17 06:10:20;;;;;;;14.73;7.32;;;;;;;-145.18;100.00;46816.66;5017281;28;20034;-86
2024/01/17 06:12:46;;;;;;;16.80;7.90;;;;;;;-145.18;100.00;46810.81;5017131;28;20045;-86
2024/01/17 06:15:17;;;;;;;16.30;7.40;;;;;;;-145.18;100.00;46810.81;5015063;28;20045;-85
2024/01/17 06:17:43;;;;;;;17.23;7.75;;;;;;;-145.18;100.00;46812.75;5030728;28;20037;-87
2024/01/17 06:20:09;;;;;;;17.07;7.73;;;;;;;-145.18;100.00;46812.75;5016412;28;20055;-86
2024/01/17 06:22:35;;;;;;;14.00;6.78;;;;;;;-145.18;100.00;46814.72;5016608;28;20433;-85
2024/01/17 06:25:00;;;;;;;16.87;7.43;;;;;;;-145.18;100.00;46814.72;5015996;28;20042;-87
2024/01/17 06:27:26;;;;;;;17.70;6.73;;;;;;;-145.18;100.00;46810.81;4999705;28;20076;-86
2024/01/17 06:29:51;;;;;;;14.90;7.60;;;;;;;-145.18;100.00;46816.66;5018878;28;20030;-90
2024/01/17 06:32:17;;;;;;;15.67;7.43;;;;;;;-145.18;100.00;46812.75;5022681;28;20032;-91
2024/01/17 06:34:43;;;;;;;13.48;6.85;;;;;;;-145.18;100.00;46812.75;5005035;28;20025;-88
2024/01/17 06:37:09;;;;;;;15.40;7.50;;;;;;;-145.18;100.00;46816.66;5020694;28;20455;-93
2024/01/17 06:39:34;;;;;;;15.27;8.00;;;;;;;-145.18;100.00;46820.56;5005332;28;20041;-94
2024/01/17 06:42:00;;;;;;;17.70;7.07;;;;;;;-145.18;100.00;46818.63;5006567;28;20116;-93
2024/01/17 06:44:27;;;;;;;24.63;7.50;;;;;;;-145.18;100.00;46816.66;5007141;28;20068;-94
2024/01/17 06:46:53;;;;;;;15.13;7.10;;;;;;;-145.18;100.00;46818.63;5023069;28;20037;-92
2024/01/17 06:49:18;;;;;;;18.57;8.00;;;;;;;-145.18;100.00;46816.66;5007709;28;20042;-92
2024/01/17 06:51:44;;;;;;;20.17;8.40;;;;;;;-145.18;100.00;46814.72;5007290;28;20061;-93
2024/01/17 06:54:09;;;;;;;20.07;7.60;;;;;;;-145.18;100.00;46818.63;5004038;28;20026;-89
2024/01/17 06:56:36;;;;;;;15.30;7.47;;;;;;;-145.18;100.00;46818.63;5001715;28;20107;-91
2024/01/17 06:59:02;;;;;;;19.45;8.50;;;;;;;-145.18;100.00;46818.63;5000634;28;20030;-81
2024/01/17 07:01:27;;;;;;;18.13;7.70;;;;;;;-145.18;100.00;46818.63;5015731;28;20562;-81
2024/01/17 07:03:52;;;;;;;16.50;7.67;;;;;;;-145.18;100.00;46820.56;5015501;28;20050;-82
2024/01/17 07:06:18;;;;;;;19.00;7.70;;;;;;;-145.18;100.00;46820.56;5015952;28;20050;-81
2024/01/17 07:08:43;;;;;;;21.53;8.90;;;;;;;-145.18;100.00;46822.53;5015082;28;20046;-83
2024/01/17 07:11:11;;;;;;;19.90;9.03;;;;;;;-145.18;100.00;46822.53;5014858;28;20088;-82
2024/01/17 07:13:38;;;;;;;19.48;9.07;;;;;;;-145.18;100.00;46822.53;5030547;28;20475;-83
2024/01/17 07:16:04;;;;;;;21.50;8.60;;;;;;;-145.18;100.00;46826.44;5014922;28;20506;-83
2024/01/17 07:18:30;;;;;;;20.38;9.63;;;;;;;-145.18;100.00;46824.47;5015364;28;20030;-83
2024/01/17 07:20:55;;;;;;;19.63;8.93;;;;;;;-145.18;100.00;46824.47;5014727;28;20056;-83
2024/01/17 07:23:20;;;;;;;18.63;8.60;;;;;;;-145.18;100.00;46836.19;4997815;28;20037;-88
2024/01/17 07:25:46;;;;;;;22.17;9.13;;;;;;;-145.18;100.00;46828.38;5015419;28;20437;-88
2024/01/17 07:28:13;;;;;;;18.30;8.43;;;;;;;-145.18;100.00;46828.38;5015389;28;20541;-87
2024/01/17 07:30:39;;;;;;;15.50;8.27;;;;;;;-145.18;100.00;46830.34;5015193;28;20447;-85
2024/01/17 07:33:04;;;;;;;19.10;8.43;;;;;;;-145.18;100.00;46828.38;5015625;28;20200;-87
2024/01/17 07:35:29;;;;;;;15.37;8.07;;;;;;;-145.18;100.00;46834.25;5015005;28;20113;-86
2024/01/17 07:37:58;;;;;;;21.13;9.33;;;;;;;-145.18;100.00;46830.34;5030387;28;20038;-87
2024/01/17 07:40:23;;;;;;;16.90;8.60;;;;;;;-145.18;100.00;46830.34;5015241;28;20040;-86
2024/01/17 07:42:49;;;;;;;18.73;8.40;;;;;;;-145.18;100.00;46830.34;5014789;28;20475;-86
2024/01/17 07:45:15;;;;;;;15.80;8.70;;;;;;;-145.18;100.00;46832.28;5015392;28;20041;-88
2024/01/17 07:47:40;;;;;;;16.98;8.43;;;;;;;-145.18;100.00;46832.28;5014841;28;20049;-88
2024/01/17 07:50:09;;;;;;;19.40;8.70;;;;;;;-145.18;100.00;46830.34;5014731;28;20038;-89
2024/01/17 07:52:34;;;;;;;17.63;8.63;;;;;;;-145.18;100.00;46828.38;5015022;28;20040;-87
2024/01/17 07:55:00;;;;;;;17.37;8.67;;;;;;;-145.18;100.00;46832.28;5015107;28;20117;-88
2024/01/17 07:57:25;;;;;;;17.30;9.13;;;;;;;-145.18;100.00;46832.28;5016390;28;20038;-88
2024/01/17 07:59:51;;;;;;;18.73;8.63;;;;;;;-145.18;100.00;46828.38;5014440;28;20041;-87
2024/01/17 08:02:17;;;;;;;18.73;9.30;;;;;;;-145.18;100.00;46834.25;5014617;28;20072;-86
2024/01/17 08:04:42;;;;;;;17.95;9.02;;;;;;;-145.18;100.00;46834.25;5017197;28;20057;-87
2024/01/17 08:07:08;;;;;;;17.13;9.00;;;;;;;-145.18;100.00;46836.19;5014626;28;20042;-84
2024/01/17 08:09:34;;;;;;;20.77;9.17;;;;;;;-145.18;100.00;46828.38;5020038;28;20029;-93
2024/01/17 08:11:59;;;;;;;19.20;8.83;;;;;;;-145.18;100.00;46830.34;5019706;28;20030;-93
2024/01/17 08:14:25;;;;;;;21.33;9.03;;;;;;;-145.18;100.00;46822.53;5020215;28;20380;-93
2024/01/17 08:16:59;;;;;;;15.90;9.17;;;;;;;-145.18;100.00;46824.47;5024412;28;20081;-94
2024/01/17 08:19:25;;;;;;;17.67;9.38;;;;;;;-145.18;100.00;46820.56;5029083;28;20030;-94
2024/01/17 08:21:51;;;;;;;18.37;9.37;;;;;;;-145.18;100.00;46822.53;5024019;28;20057;-92
2024/01/17 08:24:21;;;;;;;16.02;8.60;;;;;;;-145.18;100.00;46816.66;5019736;28;20034;-93
2024/01/17 08:26:53;;;;;;;21.00;9.15;;;;;;;-145.18;100.00;46816.66;5034653;28;20058;-93
2024/01/17 08:29:19;;;;;;;19.05;9.27;;;;;;;-145.18;100.00;46814.72;5003674;28;20471;-93
2024/01/17 08:31:44;;;;;;;18.93;9.07;;;;;;;-145.18;100.00;46814.72;5000518;28;20038;-94
2024/01/17 08:34:11;;;;;;;17.73;9.17;;;;;;;-145.18;100.00;46808.84;5016425;28;20497;-92
2024/01/17 08:36:37;;;;;;;16.98;9.00;;;;;;;-145.18;100.00;46810.81;5000083;28;20034;-91
2024/01/17 08:39:05;;;;;;;14.73;8.50;;;;;;;-145.18;100.00;46806.91;5014436;28;20481;-92
2024/01/17 08:41:30;;;;;;;15.85;8.98;;;;;;;-145.18;100.00;46801.03;5000609;28;20264;-92
2024/01/17 08:43:56;;;;;;;17.27;9.27;;;;;;;-145.18;100.00;46804.94;5000677;28;20056;-92
2024/01/17 08:46:21;;;;;;;16.83;8.03;;;;;;;-145.18;100.00;46797.13;4998642;28;20092;-91
2024/01/17 08:48:47;;;;;;;16.07;8.17;;;;;;;-145.18;100.00;46797.13;5013552;28;20037;-93
2024/01/17 08:51:12;;;;;;;14.07;8.30;;;;;;;-145.18;100.00;46793.22;5014088;28;20030;-92
2024/01/17 08:53:38;;;;;;;15.80;8.53;;;;;;;-145.18;100.00;46795.19;5014505;28;20052;-90
2024/01/17 08:56:05;;;;;;;17.23;8.53;;;;;;;-145.18;100.00;46797.13;5014332;28;20022;-91
2024/01/17 08:58:31;;;;;;;15.85;8.50;;;;;;;-145.18;100.00;46793.22;4997387;28;20108;-92
2024/01/17 09:00:57;;;;;;;19.05;9.35;;;;;;;-145.18;100.00;46793.22;5013502;28;20041;-92
2024/01/17 09:03:24;;;;;;;18.00;8.90;;;;;;;-145.18;100.00;46785.41;5015453;28;20487;-94
2024/01/17 09:05:50;;;;;;;18.65;7.90;;;;;;;-145.18;100.00;46787.38;5035733;28;20478;-92
2024/01/17 09:08:15;;;;;;;18.07;9.33;;;;;;;-145.18;100.00;46787.38;4999049;28;20041;-92
2024/01/17 09:10:41;;;;;;;14.40;7.60;;;;;;;-145.18;100.00;46785.41;4997584;28;20062;-90
2024/01/17 09:13:07;;;;;;;18.90;8.13;;;;;;;-145.18;100.00;46781.50;5029843;28;20060;-91
2024/01/17 09:15:32;;;;;;;15.77;8.37;;;;;;;-145.18;100.00;46779.56;5029918;28;20093;-88
2024/01/17 09:17:58;;;;;;;18.17;9.33;;;;;;;-145.18;100.00;46775.66;5014109;28;20088;-80
2024/01/17 09:20:24;;;;;;;19.07;8.67;;;;;;;-145.18;100.00;46777.59;5013489;28;20038;-79
2024/01/17 09:22:49;;;;;;;21.58;8.55;;;;;;;-145.18;100.00;46773.69;5013703;28;20042;-80
2024/01/17 09:25:15;;;;;;;17.90;8.63;;;;;;;-145.18;100.00;46773.69;5012767;28;20532;-79
2024/01/17 09:27:40;;;;;;;22.93;8.50;;;;;;;-145.18;100.00;46769.78;5013731;28;20352;-79
2024/01/17 09:30:06;;;;;;;16.27;8.70;;;;;;;-145.18;100.00;46769.78;5029022;28;20053;-81
2024/01/17 09:32:32;;;;;;;15.60;8.15;;;;;;;-145.18;100.00;46761.97;5013401;28;20483;-79
2024/01/17 09:34:57;;;;;;;16.13;8.53;;;;;;;-145.18;100.00;46765.88;5032985;28;20049;-80
2024/01/17 09:37:23;;;;;;;18.90;9.00;;;;;;;-145.18;100.00;46765.88;5017340;28;20410;-80
2024/01/17 09:39:49;;;;;;;16.05;8.95;;;;;;;-145.18;100.00;46767.84;5016084;28;20470;-78
2024/01/17 09:42:15;;;;;;;20.57;7.80;;;;;;;-145.18;100.00;46769.78;5017731;28;20067;-80
2024/01/17 09:44:40;;;;;;;18.48;8.73;;;;;;;-145.18;100.00;46763.91;5017575;28;20041;-80
2024/01/17 09:47:09;;;;;;;21.10;9.90;;;;;;;-145.18;100.00;46763.91;5016837;28;20041;-79
2024/01/17 09:49:35;;;;;;;19.77;10.13;;;;;;;-145.18;100.00;46763.91;5032446;28;20410;-79
2024/01/17 09:52:04;;;;;;;23.80;8.60;;;;;;;-145.18;100.00;46763.91;5017261;28;20045;-78
2024/01/17 09:54:36;;;;;;;18.10;9.05;;;;;;;-145.18;100.00;46761.97;5015554;28;20108;-79
2024/01/17 09:57:07;;;;;;;20.73;8.82;;;;;;;-145.18;100.00;46761.97;5017123;28;20034;-79
2024/01/17 09:59:34;;;;;;;15.23;8.65;;;;;;;-145.18;100.00;46760.00;5016749;28;20053;-79
2024/01/17 10:02:01;;;;;;;15.90;8.40;;;;;;;-145.18;100.00;46761.97;5017153;28;20390;-79
2024/01/17 10:04:26;;;;;;;20.65;9.55;;;;;;;-145.18;100.00;46760.00;5031954;28;20108;-78
2024/01/17 10:06:55;;;;;;;19.80;9.10;;;;;;;-145.18;100.00;46758.06;5017241;28;20038;-80
2024/01/17 10:09:24;;;;;;;20.95;8.95;;;;;;;-145.18;100.00;46760.00;5016612;28;20042;-81
2024/01/17 10:11:50;;;;;;;17.20;9.15;;;;;;;-145.18;100.00;46760.00;5031732;28;20034;-80
2024/01/17 10:14:16;;;;;;;21.70;9.27;;;;;;;-145.18;100.00;46758.06;5032098;28;20026;-80
2024/01/17 10:16:42;;;;;;;18.85;9.20;;;;;;;-145.18;100.00;46758.06;5016749;28;20375;-80
2024/01/17 10:19:08;;;;;;;17.48;8.63;;;;;;;-145.18;100.00;46756.09;5016509;28;20034;-79
2024/01/17 10:21:34;;;;;;;15.33;9.30;;;;;;;-145.18;100.00;46754.16;5031682;28;20037;-79
2024/01/17 10:24:00;;;;;;;17.33;8.87;;;;;;;-145.18;100.00;46754.16;5016825;28;20034;-79
2024/01/17 10:26:25;;;;;;;32.37;12.83;;;;;;;-145.18;100.00;46754.16;5016365;28;20037;-79
2024/01/17 10:28:51;;;;;;;33.77;12.27;;;;;;;-145.18;100.00;46761.97;5016868;28;20060;-78
2024/01/17 10:31:20;;;;;;;27.23;12.15;;;;;;;-145.18;100.00;46761.97;5016439;28;20112;-79
2024/01/17 10:33:46;;;;;;;21.70;10.55;;;;;;;-145.18;100.00;46754.16;5016778;28;20459;-79
2024/01/17 10:36:11;;;;;;;20.23;8.40;;;;;;;-145.18;100.00;46752.19;5016128;28;20041;-79
2024/01/17 10:38:37;;;;;;;23.87;10.07;;;;;;;-145.18;100.00;46756.09;5018410;28;20034;-91
2024/01/17 10:41:06;;;;;;;20.07;8.83;;;;;;;-145.18;100.00;46752.19;5019750;28;20390;-92
2024/01/17 10:43:54;;;;;;;21.02;9.38;;;;;;;-145.18;100.00;46754.16;5019856;28;20061;-92
2024/01/17 10:46:20;;;;;;;15.93;8.50;;;;;;;-145.18;100.00;46756.09;5016297;28;20119;-91
2024/01/17 10:48:46;;;;;;;18.70;9.53;;;;;;;-145.18;100.00;46752.19;5032098;28;20045;-90
2024/01/17 10:51:19;;;;;;;22.90;9.80;;;;;;;-145.18;100.00;46752.19;5017346;28;20014;-89
2024/01/17 10:53:47;;;;;;;19.08;8.95;;;;;;;-145.18;100.00;46752.19;5031575;28;20034;-92